sensor_id;sensor_type;location;lat;lon;timestamp;P1;durP1;ratioP1;P2;durP2;ratioP2
66437;SDS011;54537;47.972;11.662;2023-05-21T00:02:00;16.02;;;6.68;;
66437;SDS011;54537;47.972;11.662;2023-05-21T00:04:28;13.85;;;6.30;;
66437;SDS011;54537;47.972;11.662;2023-05-21T00:06:55;13.77;;;6.18;;
66437;SDS011;54537;47.972;11.662;2023-05-21T00:09:22;11.98;;;6.28;;
66437;SDS011;54537;47.972;11.662;2023-05-21T00:11:50;14.07;;;6.22;;
66437;SDS011;54537;47.972;11.662;2023-05-21T00:14:17;13.13;;;6.13;;
66437;SDS011;54537;47.972;11.662;2023-05-21T00:16:43;14.02;;;6.97;;
66437;SDS011;54537;47.972;11.662;2023-05-21T00:19:11;13.50;;;6.88;;
66437;SDS011;54537;47.972;11.662;2023-05-21T00:21:37;14.05;;;6.78;;
66437;SDS011;54537;47.972;11.662;2023-05-21T00:24:04;13.00;;;6.50;;
66437;SDS011;54537;47.972;11.662;2023-05-21T00:26:31;13.50;;;6.88;;
66437;SDS011;54537;47.972;11.662;2023-05-21T00:28:59;14.18;;;6.20;;
66437;SDS011;54537;47.972;11.662;2023-05-21T00:31:25;18.55;;;7.10;;
66437;SDS011;54537;47.972;11.662;2023-05-21T00:33:52;14.63;;;6.72;;
66437;SDS011;54537;47.972;11.662;2023-05-21T00:36:18;15.43;;;6.80;;
66437;SDS011;54537;47.972;11.662;2023-05-21T00:38:47;13.32;;;6.15;;
66437;SDS011;54537;47.972;11.662;2023-05-21T00:41:14;13.63;;;6.80;;
66437;SDS011;54537;47.972;11.662;2023-05-21T00:43:41;13.73;;;6.22;;
66437;SDS011;54537;47.972;11.662;2023-05-21T00:46:12;13.05;;;6.68;;
66437;SDS011;54537;47.972;11.662;2023-05-21T00:48:40;13.43;;;6.43;;
66437;SDS011;54537;47.972;11.662;2023-05-21T00:51:07;16.67;;;6.70;;
66437;SDS011;54537;47.972;11.662;2023-05-21T00:53:33;16.95;;;7.03;;
66437;SDS011;54537;47.972;11.662;2023-05-21T00:56:00;13.85;;;7.00;;
66437;SDS011;54537;47.972;11.662;2023-05-21T00:58:27;14.77;;;6.65;;
66437;SDS011;54537;47.972;11.662;2023-05-21T01:00:54;13.60;;;6.68;;
66437;SDS011;54537;47.972;11.662;2023-05-21T01:03:22;13.45;;;6.18;;
66437;SDS011;54537;47.972;11.662;2023-05-21T01:05:50;13.95;;;6.53;;
66437;SDS011;54537;47.972;11.662;2023-05-21T01:08:17;13.55;;;6.60;;
66437;SDS011;54537;47.972;11.662;2023-05-21T01:10:44;13.13;;;6.43;;
66437;SDS011;54537;47.972;11.662;2023-05-21T01:13:11;12.77;;;6.68;;
66437;SDS011;54537;47.972;11.662;2023-05-21T01:15:38;13.77;;;6.50;;
66437;SDS011;54537;47.972;11.662;2023-05-21T01:18:05;13.38;;;6.97;;
66437;SDS011;54537;47.972;11.662;2023-05-21T01:20:34;13.23;;;6.70;;
66437;SDS011;54537;47.972;11.662;2023-05-21T01:23:03;13.70;;;6.65;;
66437;SDS011;54537;47.972;11.662;2023-05-21T01:25:30;13.18;;;6.60;;
66437;SDS011;54537;47.972;11.662;2023-05-21T01:27:57;13.38;;;6.97;;
66437;SDS011;54537;47.972;11.662;2023-05-21T01:30:23;13.82;;;6.75;;
66437;SDS011;54537;47.972;11.662;2023-05-21T01:32:52;14.20;;;6.65;;
66437;SDS011;54537;47.972;11.662;2023-05-21T01:35:21;12.35;;;6.32;;
66437;SDS011;54537;47.972;11.662;2023-05-21T01:37:52;15.55;;;6.80;;
66437;SDS011;54537;47.972;11.662;2023-05-21T01:40:24;13.45;;;6.75;;
66437;SDS011;54537;47.972;11.662;2023-05-21T01:42:55;14.90;;;6.70;;
66437;SDS011;54537;47.972;11.662;2023-05-21T01:45:22;13.65;;;6.70;;
66437;SDS011;54537;47.972;11.662;2023-05-21T01:47:49;13.00;;;6.38;;
66437;SDS011;54537;47.972;11.662;2023-05-21T01:50:17;14.90;;;6.78;;
66437;SDS011;54537;47.972;11.662;2023-05-21T01:52:47;14.27;;;6.90;;
66437;SDS011;54537;47.972;11.662;2023-05-21T01:55:14;15.15;;;6.85;;
66437;SDS011;54537;47.972;11.662;2023-05-21T01:57:43;14.02;;;6.85;;
66437;SDS011;54537;47.972;11.662;2023-05-21T02:00:10;14.93;;;6.07;;
66437;SDS011;54537;47.972;11.662;2023-05-21T02:02:37;13.13;;;6.97;;
66437;SDS011;54537;47.972;11.662;2023-05-21T02:05:04;16.15;;;6.80;;
66437;SDS011;54537;47.972;11.662;2023-05-21T02:07:31;17.20;;;7.32;;
66437;SDS011;54537;47.972;11.662;2023-05-21T02:09:57;15.38;;;6.80;;
66437;SDS011;54537;47.972;11.662;2023-05-21T02:12:24;15.80;;;6.93;;
66437;SDS011;54537;47.972;11.662;2023-05-21T02:14:53;16.85;;;7.05;;
66437;SDS011;54537;47.972;11.662;2023-05-21T02:17:20;14.35;;;7.20;;
66437;SDS011;54537;47.972;11.662;2023-05-21T02:19:46;15.15;;;6.90;;
66437;SDS011;54537;47.972;11.662;2023-05-21T02:22:13;14.55;;;7.20;;
66437;SDS011;54537;47.972;11.662;2023-05-21T02:24:39;15.75;;;6.85;;
66437;SDS011;54537;47.972;11.662;2023-05-21T02:27:06;14.32;;;7.03;;
66437;SDS011;54537;47.972;11.662;2023-05-21T02:29:34;15.30;;;7.45;;
66437;SDS011;54537;47.972;11.662;2023-05-21T02:32:02;13.13;;;6.35;;
66437;SDS011;54537;47.972;11.662;2023-05-21T02:34:29;15.60;;;6.75;;
66437;SDS011;54537;47.972;11.662;2023-05-21T02:36:56;12.77;;;7.13;;
66437;SDS011;54537;47.972;11.662;2023-05-21T02:39:22;13.35;;;6.78;;
66437;SDS011;54537;47.972;11.662;2023-05-21T02:41:49;14.95;;;6.75;;
66437;SDS011;54537;47.972;11.662;2023-05-21T02:44:15;15.40;;;6.88;;
66437;SDS011;54537;47.972;11.662;2023-05-21T02:46:43;13.27;;;6.75;;
66437;SDS011;54537;47.972;11.662;2023-05-21T02:49:11;15.10;;;6.57;;
66437;SDS011;54537;47.972;11.662;2023-05-21T02:51:37;15.07;;;7.07;;
66437;SDS011;54537;47.972;11.662;2023-05-21T02:54:03;16.23;;;6.85;;
66437;SDS011;54537;47.972;11.662;2023-05-21T02:56:30;15.32;;;6.88;;
66437;SDS011;54537;47.972;11.662;2023-05-21T02:58:56;14.25;;;6.60;;
66437;SDS011;54537;47.972;11.662;2023-05-21T03:01:23;15.82;;;7.38;;
66437;SDS011;54537;47.972;11.662;2023-05-21T03:03:49;14.80;;;6.82;;
66437;SDS011;54537;47.972;11.662;2023-05-21T03:06:17;13.98;;;6.78;;
66437;SDS011;54537;47.972;11.662;2023-05-21T03:08:44;14.98;;;7.50;;
66437;SDS011;54537;47.972;11.662;2023-05-21T03:11:10;15.50;;;7.43;;
66437;SDS011;54537;47.972;11.662;2023-05-21T03:13:37;16.73;;;7.68;;
66437;SDS011;54537;47.972;11.662;2023-05-21T03:16:03;16.70;;;7.18;;
66437;SDS011;54537;47.972;11.662;2023-05-21T03:18:30;16.55;;;6.88;;
66437;SDS011;54537;47.972;11.662;2023-05-21T03:20:57;15.23;;;7.10;;
66437;SDS011;54537;47.972;11.662;2023-05-21T03:23:25;14.10;;;7.07;;
66437;SDS011;54537;47.972;11.662;2023-05-21T03:25:51;16.08;;;7.22;;
66437;SDS011;54537;47.972;11.662;2023-05-21T03:28:18;14.82;;;6.97;;
66437;SDS011;54537;47.972;11.662;2023-05-21T03:30:44;17.15;;;7.03;;
66437;SDS011;54537;47.972;11.662;2023-05-21T03:33:11;16.52;;;6.93;;
66437;SDS011;54537;47.972;11.662;2023-05-21T03:35:38;14.80;;;7.20;;
66437;SDS011;54537;47.972;11.662;2023-05-21T03:38:04;15.45;;;7.45;;
66437;SDS011;54537;47.972;11.662;2023-05-21T03:40:32;14.43;;;7.05;;
66437;SDS011;54537;47.972;11.662;2023-05-21T03:42:58;15.65;;;7.65;;
66437;SDS011;54537;47.972;11.662;2023-05-21T03:45:25;15.68;;;7.40;;
66437;SDS011;54537;47.972;11.662;2023-05-21T03:47:51;15.25;;;6.82;;
66437;SDS011;54537;47.972;11.662;2023-05-21T03:50:17;14.93;;;7.07;;
66437;SDS011;54537;47.972;11.662;2023-05-21T03:52:44;14.25;;;6.70;;
66437;SDS011;54537;47.972;11.662;2023-05-21T03:55:10;14.43;;;7.18;;
66437;SDS011;54537;47.972;11.662;2023-05-21T03:57:38;13.98;;;6.63;;
66437;SDS011;54537;47.972;11.662;2023-05-21T04:00:06;12.48;;;6.38;;
66437;SDS011;54537;47.972;11.662;2023-05-21T04:02:34;12.75;;;5.95;;
66437;SDS011;54537;47.972;11.662;2023-05-21T04:05:00;13.68;;;6.03;;
66437;SDS011;54537;47.972;11.662;2023-05-21T04:07:27;11.75;;;5.93;;
66437;SDS011;54537;47.972;11.662;2023-05-21T04:09:54;14.25;;;6.20;;
66437;SDS011;54537;47.972;11.662;2023-05-21T04:12:20;15.23;;;6.57;;
66437;SDS011;54537;47.972;11.662;2023-05-21T04:14:48;13.93;;;6.55;;
66437;SDS011;54537;47.972;11.662;2023-05-21T04:17:15;13.20;;;6.13;;
66437;SDS011;54537;47.972;11.662;2023-05-21T04:19:43;17.48;;;6.05;;
66437;SDS011;54537;47.972;11.662;2023-05-21T04:22:09;12.75;;;5.90;;
66437;SDS011;54537;47.972;11.662;2023-05-21T04:24:36;13.20;;;5.80;;
66437;SDS011;54537;47.972;11.662;2023-05-21T04:27:03;18.95;;;6.93;;
66437;SDS011;54537;47.972;11.662;2023-05-21T04:29:30;11.52;;;5.65;;
66437;SDS011;54537;47.972;11.662;2023-05-21T04:31:58;13.02;;;6.28;;
66437;SDS011;54537;47.972;11.662;2023-05-21T04:34:25;11.73;;;5.63;;
66437;SDS011;54537;47.972;11.662;2023-05-21T04:36:51;16.40;;;6.03;;
66437;SDS011;54537;47.972;11.662;2023-05-21T04:39:18;12.13;;;5.25;;
66437;SDS011;54537;47.972;11.662;2023-05-21T04:41:44;11.77;;;5.50;;
66437;SDS011;54537;47.972;11.662;2023-05-21T04:44:10;11.38;;;5.55;;
66437;SDS011;54537;47.972;11.662;2023-05-21T04:46:38;10.90;;;5.40;;
66437;SDS011;54537;47.972;11.662;2023-05-21T04:49:06;11.88;;;5.60;;
66437;SDS011;54537;47.972;11.662;2023-05-21T04:51:33;11.23;;;5.45;;
66437;SDS011;54537;47.972;11.662;2023-05-21T04:54:01;12.70;;;5.40;;
66437;SDS011;54537;47.972;11.662;2023-05-21T04:56:28;15.18;;;5.65;;
66437;SDS011;54537;47.972;11.662;2023-05-21T04:58:55;11.32;;;5.28;;
66437;SDS011;54537;47.972;11.662;2023-05-21T05:01:22;11.70;;;5.75;;
66437;SDS011;54537;47.972;11.662;2023-05-21T05:03:50;10.50;;;5.53;;
66437;SDS011;54537;47.972;11.662;2023-05-21T05:06:18;10.10;;;5.22;;
66437;SDS011;54537;47.972;11.662;2023-05-21T05:08:45;12.00;;;5.95;;
66437;SDS011;54537;47.972;11.662;2023-05-21T05:11:11;11.93;;;5.53;;
66437;SDS011;54537;47.972;11.662;2023-05-21T05:13:38;11.45;;;5.75;;
66437;SDS011;54537;47.972;11.662;2023-05-21T05:16:05;10.95;;;5.63;;
66437;SDS011;54537;47.972;11.662;2023-05-21T05:18:32;12.07;;;5.53;;
66437;SDS011;54537;47.972;11.662;2023-05-21T05:20:59;10.68;;;5.05;;
66437;SDS011;54537;47.972;11.662;2023-05-21T05:23:26;13.10;;;5.32;;
66437;SDS011;54537;47.972;11.662;2023-05-21T05:25:53;11.20;;;5.18;;
66437;SDS011;54537;47.972;11.662;2023-05-21T05:28:19;11.15;;;5.38;;
66437;SDS011;54537;47.972;11.662;2023-05-21T05:30:46;11.32;;;5.35;;
66437;SDS011;54537;47.972;11.662;2023-05-21T05:33:12;11.05;;;5.47;;
66437;SDS011;54537;47.972;11.662;2023-05-21T05:35:39;11.68;;;4.70;;
66437;SDS011;54537;47.972;11.662;2023-05-21T05:38:05;11.65;;;5.50;;
66437;SDS011;54537;47.972;11.662;2023-05-21T05:40:34;10.93;;;5.15;;
66437;SDS011;54537;47.972;11.662;2023-05-21T05:43:00;10.38;;;5.20;;
66437;SDS011;54537;47.972;11.662;2023-05-21T05:45:27;11.52;;;5.00;;
66437;SDS011;54537;47.972;11.662;2023-05-21T05:47:53;11.65;;;5.75;;
66437;SDS011;54537;47.972;11.662;2023-05-21T05:50:20;13.70;;;5.75;;
66437;SDS011;54537;47.972;11.662;2023-05-21T05:52:46;9.93;;;5.05;;
66437;SDS011;54537;47.972;11.662;2023-05-21T05:55:13;10.77;;;5.60;;
66437;SDS011;54537;47.972;11.662;2023-05-21T05:57:41;10.00;;;5.18;;
66437;SDS011;54537;47.972;11.662;2023-05-21T06:00:08;9.25;;;4.65;;
66437;SDS011;54537;47.972;11.662;2023-05-21T06:02:35;9.05;;;4.72;;
66437;SDS011;54537;47.972;11.662;2023-05-21T06:05:01;11.35;;;5.00;;
66437;SDS011;54537;47.972;11.662;2023-05-21T06:07:28;10.25;;;5.40;;
66437;SDS011;54537;47.972;11.662;2023-05-21T06:09:54;14.57;;;4.70;;
66437;SDS011;54537;47.972;11.662;2023-05-21T06:12:21;9.88;;;5.15;;
66437;SDS011;54537;47.972;11.662;2023-05-21T06:14:49;10.80;;;4.60;;
66437;SDS011;54537;47.972;11.662;2023-05-21T06:17:15;11.02;;;4.80;;
66437;SDS011;54537;47.972;11.662;2023-05-21T06:19:42;8.70;;;4.65;;
66437;SDS011;54537;47.972;11.662;2023-05-21T06:22:09;10.05;;;4.80;;
66437;SDS011;54537;47.972;11.662;2023-05-21T06:24:35;9.90;;;4.63;;
66437;SDS011;54537;47.972;11.662;2023-05-21T06:27:02;9.77;;;5.07;;
66437;SDS011;54537;47.972;11.662;2023-05-21T06:29:29;9.50;;;4.70;;
66437;SDS011;54537;47.972;11.662;2023-05-21T06:31:56;12.48;;;5.13;;
66437;SDS011;54537;47.972;11.662;2023-05-21T06:34:23;10.77;;;5.22;;
66437;SDS011;54537;47.972;11.662;2023-05-21T06:36:49;9.40;;;4.95;;
66437;SDS011;54537;47.972;11.662;2023-05-21T06:39:16;8.38;;;4.80;;
66437;SDS011;54537;47.972;11.662;2023-05-21T06:41:42;10.02;;;5.00;;
66437;SDS011;54537;47.972;11.662;2023-05-21T06:44:09;11.20;;;5.30;;
66437;SDS011;54537;47.972;11.662;2023-05-21T06:46:35;9.68;;;4.93;;
66437;SDS011;54537;47.972;11.662;2023-05-21T06:49:03;11.50;;;4.70;;
66437;SDS011;54537;47.972;11.662;2023-05-21T06:51:31;9.23;;;4.63;;
66437;SDS011;54537;47.972;11.662;2023-05-21T06:53:57;11.07;;;5.88;;
66437;SDS011;54537;47.972;11.662;2023-05-21T06:56:24;10.57;;;5.25;;
66437;SDS011;54537;47.972;11.662;2023-05-21T06:58:50;10.07;;;5.00;;
66437;SDS011;54537;47.972;11.662;2023-05-21T07:01:17;9.90;;;5.07;;
66437;SDS011;54537;47.972;11.662;2023-05-21T07:03:46;10.38;;;5.20;;
66437;SDS011;54537;47.972;11.662;2023-05-21T07:06:14;11.00;;;5.63;;
66437;SDS011;54537;47.972;11.662;2023-05-21T07:08:40;10.35;;;5.00;;
66437;SDS011;54537;47.972;11.662;2023-05-21T07:11:07;9.13;;;4.85;;
66437;SDS011;54537;47.972;11.662;2023-05-21T07:13:33;8.85;;;4.88;;
66437;SDS011;54537;47.972;11.662;2023-05-21T07:16:00;10.23;;;4.97;;
66437;SDS011;54537;47.972;11.662;2023-05-21T07:18:26;9.38;;;5.07;;
66437;SDS011;54537;47.972;11.662;2023-05-21T07:20:53;10.77;;;4.88;;
66437;SDS011;54537;47.972;11.662;2023-05-21T07:23:22;9.60;;;4.65;;
66437;SDS011;54537;47.972;11.662;2023-05-21T07:25:48;12.50;;;4.95;;
66437;SDS011;54537;47.972;11.662;2023-05-21T07:28:15;9.38;;;4.93;;
66437;SDS011;54537;47.972;11.662;2023-05-21T07:30:42;9.13;;;4.65;;
66437;SDS011;54537;47.972;11.662;2023-05-21T07:33:08;9.00;;;5.03;;
66437;SDS011;54537;47.972;11.662;2023-05-21T07:35:36;8.70;;;4.78;;
66437;SDS011;54537;47.972;11.662;2023-05-21T07:38:02;15.27;;;5.05;;
66437;SDS011;54537;47.972;11.662;2023-05-21T07:40:31;10.00;;;5.20;;
66437;SDS011;54537;47.972;11.662;2023-05-21T07:42:57;12.35;;;5.22;;
66437;SDS011;54537;47.972;11.662;2023-05-21T07:45:24;10.13;;;4.93;;
66437;SDS011;54537;47.972;11.662;2023-05-21T07:47:50;8.57;;;4.75;;
66437;SDS011;54537;47.972;11.662;2023-05-21T07:50:17;9.85;;;5.07;;
66437;SDS011;54537;47.972;11.662;2023-05-21T07:52:43;9.45;;;4.78;;
66437;SDS011;54537;47.972;11.662;2023-05-21T07:55:10;10.13;;;5.03;;
66437;SDS011;54537;47.972;11.662;2023-05-21T07:57:38;10.65;;;4.70;;
66437;SDS011;54537;47.972;11.662;2023-05-21T08:00:05;10.45;;;5.22;;
66437;SDS011;54537;47.972;11.662;2023-05-21T08:02:33;8.95;;;4.57;;
66437;SDS011;54537;47.972;11.662;2023-05-21T08:05:00;8.73;;;4.78;;
66437;SDS011;54537;47.972;11.662;2023-05-21T08:07:26;11.27;;;4.85;;
66437;SDS011;54537;47.972;11.662;2023-05-21T08:09:53;9.57;;;4.65;;
66437;SDS011;54537;47.972;11.662;2023-05-21T08:12:19;8.13;;;4.40;;
66437;SDS011;54537;47.972;11.662;2023-05-21T08:14:47;8.55;;;4.57;;
66437;SDS011;54537;47.972;11.662;2023-05-21T08:17:13;12.27;;;4.90;;
66437;SDS011;54537;47.972;11.662;2023-05-21T08:19:40;9.20;;;5.07;;
66437;SDS011;54537;47.972;11.662;2023-05-21T08:22:07;9.82;;;4.75;;
66437;SDS011;54537;47.972;11.662;2023-05-21T08:24:34;10.82;;;5.13;;
66437;SDS011;54537;47.972;11.662;2023-05-21T08:27:00;8.75;;;4.95;;
66437;SDS011;54537;47.972;11.662;2023-05-21T08:29:27;8.60;;;4.72;;
66437;SDS011;54537;47.972;11.662;2023-05-21T08:31:54;9.13;;;4.78;;
66437;SDS011;54537;47.972;11.662;2023-05-21T08:34:21;9.85;;;4.63;;
66437;SDS011;54537;47.972;11.662;2023-05-21T08:36:47;9.82;;;5.32;;
66437;SDS011;54537;47.972;11.662;2023-05-21T08:39:14;8.75;;;5.13;;
66437;SDS011;54537;47.972;11.662;2023-05-21T08:41:40;8.02;;;4.93;;
66437;SDS011;54537;47.972;11.662;2023-05-21T08:44:13;9.48;;;4.97;;
66437;SDS011;54537;47.972;11.662;2023-05-21T08:46:40;11.02;;;5.00;;
66437;SDS011;54537;47.972;11.662;2023-05-21T08:49:12;8.50;;;4.53;;
66437;SDS011;54537;47.972;11.662;2023-05-21T08:51:39;9.35;;;4.93;;
66437;SDS011;54537;47.972;11.662;2023-05-21T08:54:06;9.93;;;5.10;;
66437;SDS011;54537;47.972;11.662;2023-05-21T08:56:33;9.73;;;4.70;;
66437;SDS011;54537;47.972;11.662;2023-05-21T08:59:00;9.45;;;4.90;;
66437;SDS011;54537;47.972;11.662;2023-05-21T09:01:27;9.80;;;4.55;;
66437;SDS011;54537;47.972;11.662;2023-05-21T09:03:56;8.07;;;4.32;;
66437;SDS011;54537;47.972;11.662;2023-05-21T09:06:24;8.02;;;4.55;;
66437;SDS011;54537;47.972;11.662;2023-05-21T09:08:52;9.05;;;5.15;;
66437;SDS011;54537;47.972;11.662;2023-05-21T09:11:22;7.80;;;4.68;;
66437;SDS011;54537;47.972;11.662;2023-05-21T09:13:49;9.80;;;4.68;;
66437;SDS011;54537;47.972;11.662;2023-05-21T09:16:16;10.70;;;5.20;;
66437;SDS011;54537;47.972;11.662;2023-05-21T09:18:43;8.05;;;4.70;;
66437;SDS011;54537;47.972;11.662;2023-05-21T09:21:22;9.80;;;4.70;;
66437;SDS011;54537;47.972;11.662;2023-05-21T09:23:52;10.20;;;4.75;;
66437;SDS011;54537;47.972;11.662;2023-05-21T09:26:20;9.13;;;5.20;;
66437;SDS011;54537;47.972;11.662;2023-05-21T09:28:47;7.90;;;4.80;;
66437;SDS011;54537;47.972;11.662;2023-05-21T09:31:13;8.68;;;4.40;;
66437;SDS011;54537;47.972;11.662;2023-05-21T09:33:44;9.80;;;4.68;;
66437;SDS011;54537;47.972;11.662;2023-05-21T09:36:11;7.90;;;4.50;;
66437;SDS011;54537;47.972;11.662;2023-05-21T09:38:38;8.50;;;5.07;;
66437;SDS011;54537;47.972;11.662;2023-05-21T09:41:05;9.40;;;4.82;;
66437;SDS011;54537;47.972;11.662;2023-05-21T09:43:31;10.82;;;5.35;;
66437;SDS011;54537;47.972;11.662;2023-05-21T09:45:58;9.13;;;4.88;;
66437;SDS011;54537;47.972;11.662;2023-05-21T09:48:34;8.52;;;4.38;;
66437;SDS011;54537;47.972;11.662;2023-05-21T09:51:11;7.82;;;4.75;;
66437;SDS011;54537;47.972;11.662;2023-05-21T09:53:44;8.88;;;4.72;;
66437;SDS011;54537;47.972;11.662;2023-05-21T09:56:14;7.93;;;4.70;;
66437;SDS011;54537;47.972;11.662;2023-05-21T09:58:43;9.60;;;4.70;;
66437;SDS011;54537;47.972;11.662;2023-05-21T10:01:09;7.93;;;4.65;;
66437;SDS011;54537;47.972;11.662;2023-05-21T10:03:37;7.43;;;4.50;;
66437;SDS011;54537;47.972;11.662;2023-05-21T10:06:04;9.75;;;4.80;;
66437;SDS011;54537;47.972;11.662;2023-05-21T10:08:33;8.70;;;5.10;;
66437;SDS011;54537;47.972;11.662;2023-05-21T10:11:02;9.57;;;4.90;;
66437;SDS011;54537;47.972;11.662;2023-05-21T10:13:30;9.15;;;5.05;;
66437;SDS011;54537;47.972;11.662;2023-05-21T10:15:58;8.90;;;5.03;;
66437;SDS011;54537;47.972;11.662;2023-05-21T10:18:26;8.40;;;5.03;;
66437;SDS011;54537;47.972;11.662;2023-05-21T10:20:53;10.65;;;5.10;;
66437;SDS011;54537;47.972;11.662;2023-05-21T10:23:21;9.43;;;5.10;;
66437;SDS011;54537;47.972;11.662;2023-05-21T10:25:48;7.53;;;4.88;;
66437;SDS011;54537;47.972;11.662;2023-05-21T10:28:16;9.00;;;5.20;;
66437;SDS011;54537;47.972;11.662;2023-05-21T10:30:42;9.40;;;4.90;;
66437;SDS011;54537;47.972;11.662;2023-05-21T10:35:36;8.18;;;4.43;;
66437;SDS011;54537;47.972;11.662;2023-05-21T10:38:04;8.15;;;4.10;;
66437;SDS011;54537;47.972;11.662;2023-05-21T10:40:32;10.23;;;4.53;;
66437;SDS011;54537;47.972;11.662;2023-05-21T10:43:07;9.00;;;4.60;;
66437;SDS011;54537;47.972;11.662;2023-05-21T10:46:00;7.97;;;4.72;;
66437;SDS011;54537;47.972;11.662;2023-05-21T10:48:43;8.95;;;4.82;;
66437;SDS011;54537;47.972;11.662;2023-05-21T10:51:17;7.32;;;4.55;;
66437;SDS011;54537;47.972;11.662;2023-05-21T10:53:53;9.35;;;4.53;;
66437;SDS011;54537;47.972;11.662;2023-05-21T10:56:29;11.50;;;4.82;;
66437;SDS011;54537;47.972;11.662;2023-05-21T10:59:09;7.97;;;4.75;;
66437;SDS011;54537;47.972;11.662;2023-05-21T11:01:43;7.45;;;4.50;;
66437;SDS011;54537;47.972;11.662;2023-05-21T11:04:10;7.72;;;4.40;;
66437;SDS011;54537;47.972;11.662;2023-05-21T11:06:39;8.02;;;4.43;;
66437;SDS011;54537;47.972;11.662;2023-05-21T11:09:10;9.52;;;4.70;;
66437;SDS011;54537;47.972;11.662;2023-05-21T11:11:41;9.50;;;4.63;;
66437;SDS011;54537;47.972;11.662;2023-05-21T11:14:27;9.13;;;4.82;;
66437;SDS011;54537;47.972;11.662;2023-05-21T11:16:58;8.00;;;4.30;;
66437;SDS011;54537;47.972;11.662;2023-05-21T11:19:32;6.68;;;4.50;;
66437;SDS011;54537;47.972;11.662;2023-05-21T11:22:00;7.38;;;4.38;;
66437;SDS011;54537;47.972;11.662;2023-05-21T11:24:30;8.93;;;4.57;;
66437;SDS011;54537;47.972;11.662;2023-05-21T11:26:58;6.15;;;4.03;;
66437;SDS011;54537;47.972;11.662;2023-05-21T11:29:43;6.72;;;4.20;;
66437;SDS011;54537;47.972;11.662;2023-05-21T11:32:13;7.30;;;4.55;;
66437;SDS011;54537;47.972;11.662;2023-05-21T11:34:42;7.85;;;3.95;;
66437;SDS011;54537;47.972;11.662;2023-05-21T11:37:22;6.82;;;4.45;;
66437;SDS011;54537;47.972;11.662;2023-05-21T11:39:51;11.52;;;4.22;;
66437;SDS011;54537;47.972;11.662;2023-05-21T11:42:26;10.70;;;4.40;;
66437;SDS011;54537;47.972;11.662;2023-05-21T11:44:56;6.40;;;4.05;;
66437;SDS011;54537;47.972;11.662;2023-05-21T11:47:25;8.00;;;4.32;;
66437;SDS011;54537;47.972;11.662;2023-05-21T11:49:52;6.25;;;3.95;;
66437;SDS011;54537;47.972;11.662;2023-05-21T11:52:19;7.97;;;4.47;;
66437;SDS011;54537;47.972;11.662;2023-05-21T11:54:45;7.18;;;4.10;;
66437;SDS011;54537;47.972;11.662;2023-05-21T11:57:14;5.85;;;3.83;;
66437;SDS011;54537;47.972;11.662;2023-05-21T11:59:42;7.32;;;4.07;;
66437;SDS011;54537;47.972;11.662;2023-05-21T12:02:12;7.18;;;4.20;;
66437;SDS011;54537;47.972;11.662;2023-05-21T12:04:40;8.25;;;4.22;;
66437;SDS011;54537;47.972;11.662;2023-05-21T12:07:08;5.93;;;3.72;;
66437;SDS011;54537;47.972;11.662;2023-05-21T12:09:37;7.05;;;4.00;;
66437;SDS011;54537;47.972;11.662;2023-05-21T12:12:04;6.50;;;4.03;;
66437;SDS011;54537;47.972;11.662;2023-05-21T12:14:31;6.88;;;4.50;;
66437;SDS011;54537;47.972;11.662;2023-05-21T12:16:58;6.55;;;4.03;;
66437;SDS011;54537;47.972;11.662;2023-05-21T12:19:24;7.68;;;4.60;;
66437;SDS011;54537;47.972;11.662;2023-05-21T12:21:52;9.68;;;4.20;;
66437;SDS011;54537;47.972;11.662;2023-05-21T12:24:19;7.82;;;4.10;;
66437;SDS011;54537;47.972;11.662;2023-05-21T12:26:45;7.45;;;4.25;;
66437;SDS011;54537;47.972;11.662;2023-05-21T12:29:12;7.07;;;4.47;;
66437;SDS011;54537;47.972;11.662;2023-05-21T12:31:45;7.40;;;4.18;;
66437;SDS011;54537;47.972;11.662;2023-05-21T12:34:13;9.88;;;4.28;;
66437;SDS011;54537;47.972;11.662;2023-05-21T12:36:42;12.75;;;4.47;;
66437;SDS011;54537;47.972;11.662;2023-05-21T12:39:13;7.45;;;4.32;;
66437;SDS011;54537;47.972;11.662;2023-05-21T12:41:40;7.82;;;4.63;;
66437;SDS011;54537;47.972;11.662;2023-05-21T12:44:07;7.15;;;3.83;;
66437;SDS011;54537;47.972;11.662;2023-05-21T12:46:34;8.63;;;4.63;;
66437;SDS011;54537;47.972;11.662;2023-05-21T12:49:01;7.47;;;4.13;;
66437;SDS011;54537;47.972;11.662;2023-05-21T12:51:36;7.32;;;4.43;;
66437;SDS011;54537;47.972;11.662;2023-05-21T12:54:03;7.07;;;4.15;;
66437;SDS011;54537;47.972;11.662;2023-05-21T12:56:31;8.75;;;4.32;;
66437;SDS011;54537;47.972;11.662;2023-05-21T12:59:11;8.20;;;4.40;;
66437;SDS011;54537;47.972;11.662;2023-05-21T13:01:38;7.28;;;4.28;;
66437;SDS011;54537;47.972;11.662;2023-05-21T13:04:05;8.82;;;4.00;;
66437;SDS011;54537;47.972;11.662;2023-05-21T13:06:40;7.18;;;4.25;;
66437;SDS011;54537;47.972;11.662;2023-05-21T13:09:07;7.65;;;4.22;;
66437;SDS011;54537;47.972;11.662;2023-05-21T13:11:34;8.75;;;4.40;;
66437;SDS011;54537;47.972;11.662;2023-05-21T13:14:01;9.63;;;4.32;;
66437;SDS011;54537;47.972;11.662;2023-05-21T13:16:27;9.23;;;4.38;;
66437;SDS011;54537;47.972;11.662;2023-05-21T13:18:54;7.28;;;3.95;;
66437;SDS011;54537;47.972;11.662;2023-05-21T13:21:20;9.25;;;4.35;;
66437;SDS011;54537;47.972;11.662;2023-05-21T13:23:47;7.65;;;4.20;;
66437;SDS011;54537;47.972;11.662;2023-05-21T13:26:13;9.13;;;4.60;;
66437;SDS011;54537;47.972;11.662;2023-05-21T13:28:41;9.88;;;4.15;;
66437;SDS011;54537;47.972;11.662;2023-05-21T13:31:08;10.93;;;4.43;;
66437;SDS011;54537;47.972;11.662;2023-05-21T13:33:36;12.32;;;4.68;;
66437;SDS011;54537;47.972;11.662;2023-05-21T13:36:02;8.00;;;4.72;;
66437;SDS011;54537;47.972;11.662;2023-05-21T13:38:29;7.97;;;4.40;;
66437;SDS011;54537;47.972;11.662;2023-05-21T13:40:56;9.52;;;4.35;;
66437;SDS011;54537;47.972;11.662;2023-05-21T13:43:23;10.45;;;4.63;;
66437;SDS011;54537;47.972;11.662;2023-05-21T13:45:51;7.68;;;4.38;;
66437;SDS011;54537;47.972;11.662;2023-05-21T13:48:17;8.82;;;4.80;;
66437;SDS011;54537;47.972;11.662;2023-05-21T13:50:43;9.50;;;4.72;;
66437;SDS011;54537;47.972;11.662;2023-05-21T13:53:10;8.00;;;4.47;;
66437;SDS011;54537;47.972;11.662;2023-05-21T13:55:36;10.20;;;4.40;;
66437;SDS011;54537;47.972;11.662;2023-05-21T13:58:03;7.80;;;4.30;;
66437;SDS011;54537;47.972;11.662;2023-05-21T14:00:29;9.32;;;5.05;;
66437;SDS011;54537;47.972;11.662;2023-05-21T14:02:57;8.93;;;4.65;;
66437;SDS011;54537;47.972;11.662;2023-05-21T14:05:23;10.23;;;5.20;;
66437;SDS011;54537;47.972;11.662;2023-05-21T14:07:50;7.50;;;4.30;;
66437;SDS011;54537;47.972;11.662;2023-05-21T14:10:16;7.45;;;4.30;;
66437;SDS011;54537;47.972;11.662;2023-05-21T14:12:44;10.05;;;4.40;;
66437;SDS011;54537;47.972;11.662;2023-05-21T14:15:11;8.07;;;4.47;;
66437;SDS011;54537;47.972;11.662;2023-05-21T14:17:37;8.50;;;4.38;;
66437;SDS011;54537;47.972;11.662;2023-05-21T14:20:08;9.02;;;4.63;;
66437;SDS011;54537;47.972;11.662;2023-05-21T14:22:34;9.90;;;4.40;;
66437;SDS011;54537;47.972;11.662;2023-05-21T14:25:01;7.00;;;3.85;;
66437;SDS011;54537;47.972;11.662;2023-05-21T14:27:27;9.20;;;4.32;;
66437;SDS011;54537;47.972;11.662;2023-05-21T14:29:54;10.00;;;4.43;;
66437;SDS011;54537;47.972;11.662;2023-05-21T14:32:20;10.20;;;4.22;;
66437;SDS011;54537;47.972;11.662;2023-05-21T14:34:47;11.27;;;3.97;;